Time;durP1;ratioP1;P1;durP2;ratioP2;P2;SDS_P1;SDS_P2;PMS_P1;PMS_P2;Temp;Humidity;BMP_temperature;BMP_pressure;BME280_temperature;BME280_humidity;BME280_pressure;Samples;Min_cycle;Max_cycle;Signal;HPM_P1;HPM_P2
2023/06/15 00:01:23;;;;;;;21.85;13.45;;;;;;;;;;6259735;28;20044;-59
2023/06/15 00:04:24;;;;;;;26.42;14.68;;;;;;;;;;6262542;28;20136;-58
2023/06/15 00:07:25;;;;;;;24.02;14.43;;;;;;;;;;6257767;28;20052;-56
2023/06/15 00:10:26;;;;;;;21.70;13.38;;;;;;;;;;6258966;28;20051;-59
2023/06/15 00:13:27;;;;;;;25.70;15.75;;;;;;;;;;6258568;28;20471;-57
2023/06/15 00:16:31;;;;;;;26.15;14.82;;;;;;;;;;6258686;28;20047;-57
2023/06/15 00:19:31;;;;;;;22.45;13.73;;;;;;;;;;6256645;28;20048;-58
2023/06/15 00:22:34;;;;;;;25.92;15.13;;;;;;;;;;6258127;28;20072;-56
2023/06/15 00:25:35;;;;;;;25.33;14.85;;;;;;;;;;6259260;28;20136;-59
2023/06/15 00:28:35;;;;;;;24.45;15.40;;;;;;;;;;6258929;28;20068;-56
2023/06/15 00:31:36;;;;;;;28.08;15.13;;;;;;;;;;6257612;28;20057;-56
2023/06/15 00:34:37;;;;;;;36.65;15.20;;;;;;;;;;6259358;28;20409;-58
2023/06/15 00:37:37;;;;;;;24.70;14.38;;;;;;;;;;6256211;28;20508;-54
2023/06/15 00:40:38;;;;;;;25.45;15.02;;;;;;;;;;6258652;28;20063;-57
2023/06/15 00:43:40;;;;;;;27.55;14.60;;;;;;;;;;6258902;28;20064;-57
2023/06/15 00:46:41;;;;;;;26.00;14.30;;;;;;;;;;6256101;28;20045;-59
2023/06/15 00:49:41;;;;;;;21.33;13.85;;;;;;;;;;6255934;28;20119;-58
2023/06/15 00:52:43;;;;;;;26.60;15.60;;;;;;;;;;6258101;28;20048;-51
2023/06/15 00:55:44;;;;;;;25.90;15.35;;;;;;;;;;6256964;28;20139;-59
2023/06/15 00:58:46;;;;;;;23.45;13.73;;;;;;;;;;6256517;28;20674;-55
2023/06/15 01:01:54;;;;;;;23.05;13.52;;;;;;;;;;6257599;28;20512;-59
2023/06/15 01:04:55;;;;;;;22.63;13.73;;;;;;;;;;6258248;28;21040;-57
2023/06/15 01:07:56;;;;;;;22.90;13.40;;;;;;;;;;6258479;28;20052;-59
2023/06/15 01:10:57;;;;;;;22.45;13.32;;;;;;;;;;6258199;28;20061;-58
2023/06/15 01:13:58;;;;;;;24.17;14.05;;;;;;;;;;6257800;28;20307;-58
2023/06/15 01:17:05;;;;;;;23.33;14.65;;;;;;;;;;6258368;28;20585;-55
2023/06/15 01:20:07;;;;;;;24.40;14.43;;;;;;;;;;6254443;28;20037;-59
2023/06/15 01:23:27;;;;;;;29.88;17.05;;;;;;;;;;6255348;28;20044;-59
2023/06/15 01:26:28;;;;;;;30.20;16.42;;;;;;;;;;6256535;28;20056;-59
2023/06/15 01:29:29;;;;;;;;;;;;;;;;;;6256152;28;20537;-55
2023/06/15 01:32:33;;;;;;;24.33;14.70;;;;;;;;;;6255943;28;19927;-54
2023/06/15 01:35:34;;;;;;;25.33;14.85;;;;;;;;;;6254917;28;20053;-56
2023/06/15 01:38:36;;;;;;;28.30;16.80;;;;;;;;;;6255163;28;20284;-56
2023/06/15 01:41:38;;;;;;;26.20;15.20;;;;;;;;;;6257425;28;20049;-57
2023/06/15 01:44:40;;;;;;;24.55;15.13;;;;;;;;;;6256402;28;20079;-59
2023/06/15 01:47:42;;;;;;;29.85;15.77;;;;;;;;;;6256932;28;20135;-55
2023/06/15 01:50:42;;;;;;;28.05;15.82;;;;;;;;;;6253968;28;20075;-56
2023/06/15 01:53:44;;;;;;;26.08;14.60;;;;;;;;;;6255005;28;20059;-58
2023/06/15 01:56:45;;;;;;;25.60;15.07;;;;;;;;;;6258007;28;20056;-57
2023/06/15 01:59:46;;;;;;;30.10;17.20;;;;;;;;;;6254521;28;20041;-57
2023/06/15 02:02:46;;;;;;;37.00;19.27;;;;;;;;;;6257261;28;20048;-57
2023/06/15 02:05:47;;;;;;;33.10;17.70;;;;;;;;;;6257851;28;20136;-56
2023/06/15 02:08:48;;;;;;;30.40;17.73;;;;;;;;;;6256494;28;20048;-56
2023/06/15 02:11:48;;;;;;;29.58;17.05;;;;;;;;;;6255691;28;20052;-59
2023/06/15 02:14:49;;;;;;;27.60;17.23;;;;;;;;;;6255765;28;20054;-57
2023/06/15 02:17:59;;;;;;;28.67;17.20;;;;;;;;;;6256746;28;20423;-56
2023/06/15 02:20:59;;;;;;;30.73;16.67;;;;;;;;;;6252538;28;20040;-58
2023/06/15 02:24:00;;;;;;;29.92;17.33;;;;;;;;;;6254978;28;20068;-57
2023/06/15 02:27:00;;;;;;;32.38;17.63;;;;;;;;;;6258210;28;20091;-58
2023/06/15 02:30:02;;;;;;;33.85;18.60;;;;;;;;;;6255024;28;20144;-58
2023/06/15 02:33:05;;;;;;;30.92;17.27;;;;;;;;;;6256473;28;20040;-58
2023/06/15 02:36:06;;;;;;;35.47;19.95;;;;;;;;;;6256907;28;20434;-57
2023/06/15 02:39:06;;;;;;;37.70;18.38;;;;;;;;;;6258853;28;20103;-56
2023/06/15 02:42:10;;;;;;;40.83;20.95;;;;;;;;;;6254758;28;20045;-56
2023/06/15 02:45:10;;;;;;;37.75;17.85;;;;;;;;;;6256360;28;20041;-56
2023/06/15 02:48:11;;;;;;;38.83;19.25;;;;;;;;;;6255883;28;20814;-59
2023/06/15 02:51:12;;;;;;;35.55;18.33;;;;;;;;;;6254096;28;20052;-59
2023/06/15 02:54:12;;;;;;;39.20;19.30;;;;;;;;;;6254073;28;20169;-55
2023/06/15 02:57:13;;;;;;;37.83;19.33;;;;;;;;;;6257604;28;20041;-57
2023/06/15 03:00:17;;;;;;;46.47;20.92;;;;;;;;;;6261970;28;20056;-58
2023/06/15 03:03:22;;;;;;;47.92;21.70;;;;;;;;;;6257867;28;20083;-58
2023/06/15 03:06:24;;;;;;;51.25;22.40;;;;;;;;;;6256113;28;20460;-59
2023/06/15 03:09:26;;;;;;;48.15;23.23;;;;;;;;;;6253081;28;20131;-57
2023/06/15 03:12:27;;;;;;;;;;;;;;;;;;6258031;28;20141;-58
2023/06/15 03:15:27;;;;;;;55.85;24.20;;;;;;;;;;6260304;28;19937;-58
2023/06/15 03:18:29;;;;;;;56.67;24.20;;;;;;;;;;6265374;28;20554;-58
2023/06/15 03:21:30;;;;;;;51.50;24.37;;;;;;;;;;6263733;28;20072;-58
2023/06/15 03:24:32;;;;;;;55.22;22.98;;;;;;;;;;6259678;28;20053;-57
2023/06/15 03:27:33;;;;;;;55.53;23.13;;;;;;;;;;6260971;28;20399;-58
2023/06/15 03:30:35;;;;;;;49.55;22.23;;;;;;;;;;6259153;28;20082;-56
2023/06/15 03:33:36;;;;;;;62.05;26.10;;;;;;;;;;6259723;28;20045;-55
2023/06/15 03:36:36;;;;;;;51.50;21.77;;;;;;;;;;6261727;28;20059;-57
2023/06/15 03:39:37;;;;;;;48.88;22.08;;;;;;;;;;6266120;28;20416;-57
2023/06/15 03:42:38;;;;;;;51.63;22.00;;;;;;;;;;6261147;28;20139;-55
2023/06/15 03:45:39;;;;;;;60.13;23.88;;;;;;;;;;6258242;28;20052;-57
2023/06/15 03:48:40;;;;;;;50.58;22.80;;;;;;;;;;6260163;28;20059;-57
2023/06/15 03:51:40;;;;;;;60.33;21.45;;;;;;;;;;6260668;28;20481;-59
2023/06/15 03:54:42;;;;;;;66.95;19.70;;;;;;;;;;6259808;28;20087;-57
2023/06/15 03:57:42;;;;;;;43.60;17.70;;;;;;;;;;6259389;28;20488;-57
2023/06/15 04:00:45;;;;;;;43.05;18.02;;;;;;;;;;6259101;28;20044;-58
2023/06/15 04:03:45;;;;;;;49.20;17.05;;;;;;;;;;6260888;28;20045;-55
2023/06/15 04:06:47;;;;;;;40.10;17.98;;;;;;;;;;6263775;28;20049;-58
2023/06/15 04:09:47;;;;;;;35.75;16.52;;;;;;;;;;6264736;28;20048;-59
2023/06/15 04:12:48;;;;;;;42.17;18.05;;;;;;;;;;6257636;28;20167;-58
2023/06/15 04:15:50;;;;;;;40.60;17.73;;;;;;;;;;6257947;28;20491;-58
2023/06/15 04:18:51;;;;;;;48.92;17.73;;;;;;;;;;6255105;28;20137;-59
2023/06/15 04:21:51;;;;;;;46.45;17.17;;;;;;;;;;6258624;28;20061;-59
2023/06/15 04:24:52;;;;;;;43.47;17.25;;;;;;;;;;6258955;28;20052;-54
2023/06/15 04:27:53;;;;;;;40.13;17.15;;;;;;;;;;6257523;28;20045;-58
2023/06/15 04:31:08;;;;;;;40.77;18.43;;;;;;;;;;6255739;28;20460;-54
2023/06/15 04:34:08;;;;;;;37.22;15.85;;;;;;;;;;6259419;28;20057;-56
2023/06/15 04:37:11;;;;;;;32.88;15.20;;;;;;;;;;6259282;28;20110;-58
2023/06/15 04:40:12;;;;;;;39.78;16.63;;;;;;;;;;6261757;28;20044;-55
2023/06/15 04:43:13;;;;;;;36.45;16.48;;;;;;;;;;6256722;28;20131;-53
2023/06/15 04:46:14;;;;;;;42.17;19.13;;;;;;;;;;6258897;28;20045;-52
2023/06/15 04:49:15;;;;;;;41.03;17.90;;;;;;;;;;6258420;28;20198;-56
2023/06/15 04:52:15;;;;;;;39.63;17.58;;;;;;;;;;6255508;28;20488;-56
2023/06/15 04:55:16;;;;;;;40.97;18.70;;;;;;;;;;6257395;28;20033;-54
2023/06/15 04:58:17;;;;;;;39.40;18.70;;;;;;;;;;6255876;28;20511;-57
2023/06/15 05:01:18;;;;;;;38.30;18.10;;;;;;;;;;6258142;28;20069;-58
2023/06/15 05:04:22;;;;;;;37.90;17.77;;;;;;;;;;6257689;28;20041;-55
2023/06/15 05:07:23;;;;;;;43.90;18.27;;;;;;;;;;6259175;28;20122;-56
2023/06/15 05:10:23;;;;;;;39.50;16.60;;;;;;;;;;6257169;28;22270;-54
2023/06/15 05:13:24;;;;;;;40.60;17.48;;;;;;;;;;6257493;28;20530;-52
2023/06/15 05:16:25;;;;;;;37.53;17.10;;;;;;;;;;6262814;28;20060;-59
2023/06/15 05:19:26;;;;;;;39.42;17.33;;;;;;;;;;6263553;28;20041;-59
2023/06/15 05:22:26;;;;;;;35.38;16.27;;;;;;;;;;6261277;28;20131;-60
2023/06/15 05:25:27;;;;;;;31.52;15.65;;;;;;;;;;6265661;28;20142;-58
2023/06/15 05:28:27;;;;;;;36.92;16.05;;;;;;;;;;6262639;28;20057;-58
2023/06/15 05:31:28;;;;;;;34.67;15.55;;;;;;;;;;6257045;28;20064;-60
2023/06/15 05:34:28;;;;;;;37.00;15.70;;;;;;;;;;6258430;28;20428;-54
2023/06/15 05:37:29;;;;;;;33.58;15.40;;;;;;;;;;6255732;28;20558;-54
2023/06/15 05:40:30;;;;;;;32.50;15.32;;;;;;;;;;6252591;28;20040;-58
2023/06/15 05:43:30;;;;;;;29.80;14.35;;;;;;;;;;6255635;28;20037;-58
2023/06/15 05:46:31;;;;;;;27.83;14.45;;;;;;;;;;6256978;28;20455;-59
2023/06/15 05:49:32;;;;;;;33.13;15.75;;;;;;;;;;6259571;28;20056;-61
2023/06/15 05:52:32;;;;;;;31.58;14.55;;;;;;;;;;6255470;28;20496;-55
2023/06/15 05:55:33;;;;;;;32.78;15.98;;;;;;;;;;6257061;28;20033;-58
2023/06/15 05:58:34;;;;;;;33.95;15.82;;;;;;;;;;6255509;28;20056;-56
2023/06/15 06:01:34;;;;;;;32.10;15.35;;;;;;;;;;6258605;28;20041;-58
2023/06/15 06:04:35;;;;;;;27.40;13.23;;;;;;;;;;6257893;28;20161;-58
2023/06/15 06:07:36;;;;;;;26.20;13.40;;;;;;;;;;6257059;28;20041;-59
2023/06/15 06:10:37;;;;;;;23.40;12.48;;;;;;;;;;6255588;28;20796;-59
2023/06/15 06:13:37;;;;;;;23.67;12.70;;;;;;;;;;6254648;28;20645;-59
2023/06/15 06:16:38;;;;;;;28.48;14.70;;;;;;;;;;6258510;28;20048;-59
2023/06/15 06:19:39;;;;;;;29.75;16.10;;;;;;;;;;6257514;28;20460;-59
2023/06/15 06:22:40;;;;;;;30.50;16.05;;;;;;;;;;6261304;28;20049;-58
2023/06/15 06:25:40;;;;;;;32.55;16.13;;;;;;;;;;6257435;28;20053;-59
2023/06/15 06:28:41;;;;;;;32.35;16.83;;;;;;;;;;6257140;28;20056;-59
2023/06/15 06:31:42;;;;;;;32.42;17.63;;;;;;;;;;6262932;28;20295;-60
2023/06/15 06:34:43;;;;;;;34.08;17.10;;;;;;;;;;6257801;28;20110;-60
2023/06/15 06:37:44;;;;;;;29.90;16.02;;;;;;;;;;6256394;28;20087;-59
2023/06/15 06:40:44;;;;;;;29.45;15.65;;;;;;;;;;6255793;28;20106;-60
2023/06/15 06:43:45;;;;;;;30.67;16.05;;;;;;;;;;6256893;28;20049;-60
2023/06/15 06:46:45;;;;;;;31.70;17.23;;;;;;;;;;6256295;28;20450;-60
2023/06/15 06:49:46;;;;;;;28.17;16.00;;;;;;;;;;6254616;28;20136;-60
2023/06/15 06:52:47;;;;;;;31.42;17.08;;;;;;;;;;6255980;28;20056;-59
2023/06/15 06:55:48;;;;;;;34.60;17.60;;;;;;;;;;6254250;28;20072;-56
2023/06/15 06:58:48;;;;;;;30.63;16.85;;;;;;;;;;6255661;28;20041;-57
2023/06/15 07:01:49;;;;;;;29.13;15.95;;;;;;;;;;6254911;28;20203;-59
2023/06/15 07:04:49;;;;;;;25.98;15.35;;;;;;;;;;6255945;28;20060;-59
2023/06/15 07:07:50;;;;;;;32.75;16.35;;;;;;;;;;6255479;28;20064;-59
2023/06/15 07:10:50;;;;;;;30.38;15.80;;;;;;;;;;6255500;28;20047;-60
2023/06/15 07:13:51;;;;;;;28.98;16.05;;;;;;;;;;6259408;28;20500;-60
2023/06/15 07:16:52;;;;;;;29.75;15.77;;;;;;;;;;6256408;28;20041;-60
2023/06/15 07:19:52;;;;;;;21.92;13.45;;;;;;;;;;6253818;28;20041;-60
2023/06/15 07:22:53;;;;;;;28.90;14.70;;;;;;;;;;6256246;28;20037;-59
2023/06/15 07:25:54;;;;;;;24.35;13.70;;;;;;;;;;6255847;28;21035;-59
2023/06/15 07:28:54;;;;;;;27.02;15.82;;;;;;;;;;6257261;28;20075;-59
2023/06/15 07:31:55;;;;;;;26.33;13.40;;;;;;;;;;6255918;28;20090;-58
2023/06/15 07:34:55;;;;;;;23.48;14.07;;;;;;;;;;6254561;28;20049;-58
2023/06/15 07:37:57;;;;;;;23.05;13.00;;;;;;;;;;6255697;28;20051;-58
2023/06/15 07:40:57;;;;;;;22.63;12.60;;;;;;;;;;6254533;28;20041;-59
2023/06/15 07:43:58;;;;;;;22.25;13.98;;;;;;;;;;6258304;28;20305;-59
2023/06/15 07:46:58;;;;;;;23.92;13.50;;;;;;;;;;6254663;28;20041;-59
2023/06/15 07:49:59;;;;;;;25.08;13.98;;;;;;;;;;6254707;28;20099;-60
2023/06/15 07:53:00;;;;;;;23.17;13.18;;;;;;;;;;6254676;28;20443;-57
2023/06/15 07:56:01;;;;;;;22.27;13.50;;;;;;;;;;6256048;28;20091;-60
2023/06/15 07:59:01;;;;;;;25.27;13.00;;;;;;;;;;6257072;28;20045;-58
2023/06/15 08:02:02;;;;;;;24.43;13.27;;;;;;;;;;6258979;28;20043;-59
2023/06/15 08:05:03;;;;;;;19.38;12.07;;;;;;;;;;6260425;28;20041;-60
2023/06/15 08:08:04;;;;;;;21.97;12.03;;;;;;;;;;6260448;28;20069;-60
2023/06/15 08:11:07;;;;;;;24.08;12.85;;;;;;;;;;6259586;28;20041;-60
2023/06/15 08:14:08;;;;;;;21.13;13.20;;;;;;;;;;6259360;28;20128;-61
2023/06/15 08:17:08;;;;;;;23.92;15.27;;;;;;;;;;6256886;28;20060;-58
2023/06/15 08:20:10;;;;;;;26.00;14.60;;;;;;;;;;6258213;28;20134;-58
2023/06/15 08:23:11;;;;;;;23.95;13.90;;;;;;;;;;6258278;28;20041;-59
2023/06/15 08:26:12;;;;;;;24.67;12.63;;;;;;;;;;6256558;28;20056;-57
2023/06/15 08:29:12;;;;;;;19.15;12.57;;;;;;;;;;6259246;28;20052;-59
2023/06/15 08:32:13;;;;;;;21.75;12.50;;;;;;;;;;6258918;28;20072;-60
2023/06/15 08:35:14;;;;;;;21.27;12.63;;;;;;;;;;6257267;28;20575;-59
2023/06/15 08:38:14;;;;;;;25.63;13.82;;;;;;;;;;6258679;28;20065;-60
2023/06/15 08:41:15;;;;;;;26.43;13.70;;;;;;;;;;6258263;28;20476;-58
2023/06/15 08:44:19;;;;;;;19.47;12.40;;;;;;;;;;6258310;28;20484;-60
2023/06/15 08:47:21;;;;;;;20.50;12.55;;;;;;;;;;6259020;28;20484;-59
2023/06/15 08:50:22;;;;;;;20.80;12.85;;;;;;;;;;6258974;28;20045;-58
2023/06/15 08:53:23;;;;;;;22.80;13.48;;;;;;;;;;6257490;28;20044;-59
2023/06/15 08:56:26;;;;;;;23.98;15.00;;;;;;;;;;6258998;28;20048;-60
2023/06/15 08:59:29;;;;;;;23.33;14.52;;;;;;;;;;6255880;28;20087;-60
2023/06/15 09:02:31;;;;;;;26.48;14.45;;;;;;;;;;6256481;28;20045;-59
2023/06/15 09:05:32;;;;;;;24.35;14.45;;;;;;;;;;6256783;28;20673;-59
2023/06/15 09:08:32;;;;;;;27.00;15.27;;;;;;;;;;6257084;28;20040;-60
2023/06/15 09:11:40;;;;;;;28.60;14.70;;;;;;;;;;6256893;28;20056;-60
2023/06/15 09:14:41;;;;;;;26.38;15.23;;;;;;;;;;6255994;28;20060;-58
2023/06/15 09:17:42;;;;;;;30.77;16.80;;;;;;;;;;6257846;28;20186;-60
2023/06/15 09:20:42;;;;;;;27.20;15.93;;;;;;;;;;6257016;28;20110;-58
2023/06/15 09:23:44;;;;;;;28.67;16.17;;;;;;;;;;6258569;28;20045;-60
2023/06/15 09:26:45;;;;;;;29.10;16.23;;;;;;;;;;6257177;28;20033;-59
2023/06/15 09:30:02;;;;;;;29.73;17.50;;;;;;;;;;6254099;28;20541;-56
2023/06/15 09:33:13;;;;;;;26.17;16.15;;;;;;;;;;6257512;28;20052;-60
2023/06/15 09:36:14;;;;;;;29.67;16.60;;;;;;;;;;6257091;28;20144;-60
2023/06/15 09:39:24;;;;;;;31.58;17.38;;;;;;;;;;6258071;28;20095;-60
2023/06/15 09:42:28;;;;;;;31.42;16.70;;;;;;;;;;6257091;28;20036;-60
2023/06/15 09:45:29;;;;;;;31.50;17.27;;;;;;;;;;6257049;28;20132;-60
2023/06/15 09:48:32;;;;;;;29.90;17.43;;;;;;;;;;6260737;28;20048;-60
2023/06/15 09:51:35;;;;;;;33.70;17.95;;;;;;;;;;6261251;28;20471;-60
2023/06/15 09:54:38;;;;;;;33.40;17.33;;;;;;;;;;6257126;28;20064;-61
2023/06/15 09:57:41;;;;;;;32.47;16.88;;;;;;;;;;6257255;28;20048;-60
2023/06/15 10:00:42;;;;;;;29.10;17.05;;;;;;;;;;6256053;28;20055;-57
2023/06/15 10:03:45;;;;;;;27.40;16.75;;;;;;;;;;6256383;28;20045;-59
2023/06/15 10:06:50;;;;;;;29.60;17.20;;;;;;;;;;6256962;28;20052;-60
2023/06/15 10:09:53;;;;;;;30.63;18.25;;;;;;;;;;6257839;28;20488;-57
2023/06/15 10:12:55;;;;;;;31.52;17.58;;;;;;;;;;6257171;28;20045;-60
2023/06/15 10:15:57;;;;;;;29.60;17.50;;;;;;;;;;6256836;28;20040;-59
2023/06/15 10:19:01;;;;;;;;;;;;;;;;;;6257137;28;20086;-59
2023/06/15 10:22:06;;;;;;;30.15;18.17;;;;;;;;;;6253047;28;19929;-59
2023/06/15 10:25:08;;;;;;;31.67;17.65;;;;;;;;;;6256410;28;20160;-60
2023/06/15 10:28:12;;;;;;;31.33;18.67;;;;;;;;;;6256198;28;20401;-59
2023/06/15 10:31:22;;;;;;;36.25;17.65;;;;;;;;;;6252593;28;20408;-60
2023/06/15 10:34:55;;;;;;;30.70;18.05;;;;;;;;;;6251179;28;20041;-59
2023/06/15 10:38:29;;;;;;;30.48;17.77;;;;;;;;;;6256622;28;20051;-60
2023/06/15 10:41:30;;;;;;;27.92;17.48;;;;;;;;;;6257325;28;20045;-60
2023/06/15 10:44:32;;;;;;;29.87;18.07;;;;;;;;;;6256553;28;20546;-60
2023/06/15 10:47:32;;;;;;;32.83;19.35;;;;;;;;;;6254820;28;20041;-60
2023/06/15 10:50:48;;;;;;;32.00;18.63;;;;;;;;;;6253934;28;20570;-59
2023/06/15 10:53:48;;;;;;;33.42;18.80;;;;;;;;;;6253691;28;20037;-58
2023/06/15 10:56:50;;;;;;;32.13;19.13;;;;;;;;;;6254331;28;20118;-59
2023/06/15 10:59:56;;;;;;;;;;;;;;;;;;6254492;28;21105;-59
2023/06/15 11:02:59;;;;;;;31.02;17.88;;;;;;;;;;6256572;28;19998;-60
2023/06/15 11:06:07;;;;;;;36.47;18.17;;;;;;;;;;6258605;28;20069;-59
2023/06/15 11:09:12;;;;;;;32.72;18.83;;;;;;;;;;6254814;28;20060;-59
2023/06/15 11:12:35;;;;;;;29.63;18.05;;;;;;;;;;6254680;28;20581;-58
2023/06/15 11:15:37;;;;;;;31.60;18.65;;;;;;;;;;6257239;28;20514;-60
2023/06/15 11:18:54;;;;;;;33.80;19.05;;;;;;;;;;6254057;28;20049;-58
2023/06/15 11:22:06;;;;;;;32.97;18.55;;;;;;;;;;6251017;28;20495;-59
2023/06/15 11:25:11;;;;;;;31.73;18.92;;;;;;;;;;6254883;28;20667;-58
2023/06/15 11:28:15;;;;;;;30.52;18.13;;;;;;;;;;6254670;28;20179;-59
2023/06/15 11:31:16;;;;;;;31.15;18.70;;;;;;;;;;6251132;28;20140;-60
2023/06/15 11:34:17;;;;;;;32.13;19.63;;;;;;;;;;6259064;28;20041;-60
2023/06/15 11:37:22;;;;;;;34.10;18.97;;;;;;;;;;6265980;28;20041;-59
2023/06/15 11:40:22;;;;;;;31.17;18.95;;;;;;;;;;6260791;28;20063;-58
2023/06/15 11:43:23;;;;;;;33.60;19.70;;;;;;;;;;6259506;28;20047;-61
2023/06/15 11:46:25;;;;;;;31.47;19.33;;;;;;;;;;6258536;28;20037;-59
2023/06/15 11:49:32;;;;;;;34.08;20.45;;;;;;;;;;6259407;28;20553;-60
2023/06/15 11:52:32;;;;;;;33.63;19.00;;;;;;;;;;6254855;28;20106;-59
2023/06/15 11:55:41;;;;;;;38.90;19.13;;;;;;;;;;6260918;28;20068;-56
2023/06/15 11:58:44;;;;;;;34.25;20.02;;;;;;;;;;6258486;28;20156;-55
2023/06/15 12:01:45;;;;;;;34.28;19.75;;;;;;;;;;6259360;28;20037;-60
2023/06/15 12:04:47;;;;;;;33.80;20.17;;;;;;;;;;6255525;28;20481;-59
2023/06/15 12:07:48;;;;;;;35.42;18.98;;;;;;;;;;6248648;28;20045;-56
2023/06/15 12:10:50;;;;;;;32.83;19.40;;;;;;;;;;6249926;28;20175;-55
2023/06/15 12:13:51;;;;;;;36.28;20.23;;;;;;;;;;6245449;28;20359;-58
2023/06/15 12:16:52;;;;;;;34.03;19.33;;;;;;;;;;6249283;28;20044;-57
2023/06/15 12:20:11;;;;;;;35.13;20.40;;;;;;;;;;6250011;28;20952;-57
2023/06/15 12:23:23;;;;;;;33.03;19.52;;;;;;;;;;6246562;28;20056;-58
2023/06/15 12:26:31;;;;;;;35.38;20.35;;;;;;;;;;6248586;28;20148;-56
2023/06/15 12:29:32;;;;;;;33.45;18.98;;;;;;;;;;6249309;28;20083;-58
2023/06/15 12:32:33;;;;;;;33.55;18.73;;;;;;;;;;6248346;28;20044;-56
2023/06/15 12:35:38;;;;;;;33.77;20.40;;;;;;;;;;6249272;28;20051;-56
2023/06/15 12:38:42;;;;;;;31.45;19.55;;;;;;;;;;6250850;28;20818;-56
2023/06/15 12:41:43;;;;;;;34.50;20.45;;;;;;;;;;6249771;28;20134;-59
2023/06/15 12:44:44;;;;;;;32.30;20.60;;;;;;;;;;6245964;28;20037;-61
2023/06/15 12:47:44;;;;;;;35.97;20.03;;;;;;;;;;6249724;28;20473;-58
2023/06/15 12:50:45;;;;;;;36.37;20.03;;;;;;;;;;6247131;28;20148;-57
2023/06/15 12:53:45;;;;;;;35.73;20.03;;;;;;;;;;6244699;28;20122;-59
2023/06/15 12:56:46;;;;;;;34.03;20.60;;;;;;;;;;6247480;28;20060;-57
2023/06/15 12:59:47;;;;;;;37.70;20.97;;;;;;;;;;6248149;28;20041;-59
2023/06/15 13:02:47;;;;;;;36.80;21.00;;;;;;;;;;6248483;28;20080;-59
2023/06/15 13:05:48;;;;;;;33.63;21.70;;;;;;;;;;6247523;28;20048;-60
2023/06/15 13:08:49;;;;;;;33.03;20.50;;;;;;;;;;6247624;28;20187;-58
2023/06/15 13:11:49;;;;;;;35.53;20.97;;;;;;;;;;6249054;28;20485;-58
2023/06/15 13:14:51;;;;;;;34.08;20.30;;;;;;;;;;6246285;28;20064;-58
2023/06/15 13:17:52;;;;;;;33.38;19.92;;;;;;;;;;6247222;28;20046;-58
2023/06/15 13:20:53;;;;;;;34.80;20.97;;;;;;;;;;6248054;28;20053;-57
2023/06/15 13:23:53;;;;;;;33.53;19.87;;;;;;;;;;6243898;28;20060;-59
2023/06/15 13:26:54;;;;;;;35.40;21.03;;;;;;;;;;6248857;28;20420;-58
2023/06/15 13:29:54;;;;;;;35.00;20.73;;;;;;;;;;6249380;28;20048;-58
2023/06/15 13:32:55;;;;;;;32.33;19.23;;;;;;;;;;6245210;28;20564;-55
2023/06/15 13:35:57;;;;;;;32.80;20.20;;;;;;;;;;6251462;28;20041;-58
2023/06/15 13:38:57;;;;;;;;;;;;;;;;;;6253969;28;20450;-59
2023/06/15 13:41:58;;;;;;;34.97;20.55;;;;;;;;;;6252962;28;19924;-59
2023/06/15 13:44:58;;;;;;;33.83;20.63;;;;;;;;;;6249824;28;20145;-57
2023/06/15 13:47:59;;;;;;;36.13;20.97;;;;;;;;;;6252635;28;20068;-58
2023/06/15 13:51:00;;;;;;;35.33;21.37;;;;;;;;;;6252673;28;20045;-58
2023/06/15 13:54:01;;;;;;;34.88;20.52;;;;;;;;;;6250507;28;20257;-57
2023/06/15 13:57:01;;;;;;;32.27;19.77;;;;;;;;;;6251139;28;20543;-56
2023/06/15 14:00:03;;;;;;;34.43;21.27;;;;;;;;;;6252067;28;20298;-57
2023/06/15 14:03:05;;;;;;;35.33;22.25;;;;;;;;;;6250823;28;20172;-58
2023/06/15 14:06:06;;;;;;;35.78;21.48;;;;;;;;;;6252220;28;20044;-56
2023/06/15 14:09:06;;;;;;;38.57;21.60;;;;;;;;;;6253062;28;20049;-56
2023/06/15 14:12:07;;;;;;;35.33;21.83;;;;;;;;;;6251561;28;20044;-57
2023/06/15 14:15:09;;;;;;;35.50;21.80;;;;;;;;;;6251241;28;20579;-60
2023/06/15 14:18:09;;;;;;;33.58;20.83;;;;;;;;;;6252610;28;20041;-57
2023/06/15 14:21:10;;;;;;;33.13;21.40;;;;;;;;;;6251891;28;20064;-57
2023/06/15 14:24:10;;;;;;;35.80;21.00;;;;;;;;;;6246237;28;20797;-58
2023/06/15 14:27:11;;;;;;;33.03;21.10;;;;;;;;;;6251557;28;20037;-60
2023/06/15 14:30:13;;;;;;;33.30;21.07;;;;;;;;;;6249037;28;20052;-58
2023/06/15 14:33:14;;;;;;;34.47;21.75;;;;;;;;;;6250906;28;20045;-60
2023/06/15 14:36:15;;;;;;;32.63;21.20;;;;;;;;;;6252289;28;20045;-59
2023/06/15 14:39:16;;;;;;;33.27;21.10;;;;;;;;;;6255246;28;20593;-59
2023/06/15 14:42:18;;;;;;;36.08;21.98;;;;;;;;;;6253480;28;20037;-59
2023/06/15 14:45:20;;;;;;;37.17;23.00;;;;;;;;;;6252445;28;20705;-59
2023/06/15 14:48:20;;;;;;;42.35;25.73;;;;;;;;;;6254927;28;20053;-59
2023/06/15 14:51:21;;;;;;;40.47;24.85;;;;;;;;;;6253167;28;20288;-57
2023/06/15 14:54:22;;;;;;;41.93;24.33;;;;;;;;;;6250764;28;20061;-60
2023/06/15 14:57:22;;;;;;;46.27;24.50;;;;;;;;;;6253420;28;20052;-60
2023/06/15 15:00:23;;;;;;;42.27;24.47;;;;;;;;;;6252260;28;20041;-59
2023/06/15 15:03:23;;;;;;;41.83;23.17;;;;;;;;;;6252239;28;20041;-60
2023/06/15 15:06:24;;;;;;;42.07;23.57;;;;;;;;;;6252098;28;20111;-59
2023/06/15 15:09:25;;;;;;;47.97;24.80;;;;;;;;;;6258586;28;20508;-60
2023/06/15 15:12:28;;;;;;;45.40;24.70;;;;;;;;;;6257424;28;20044;-59
2023/06/15 15:15:29;;;;;;;47.00;24.70;;;;;;;;;;6257825;28;20047;-61
2023/06/15 15:18:29;;;;;;;40.30;21.57;;;;;;;;;;6260017;28;20037;-59
2023/06/15 15:21:31;;;;;;;40.47;21.87;;;;;;;;;;6258931;28;20045;-60
2023/06/15 15:24:32;;;;;;;40.15;20.60;;;;;;;;;;6256065;28;20051;-58
2023/06/15 15:27:33;;;;;;;41.07;21.50;;;;;;;;;;6259278;28;20044;-60
2023/06/15 15:30:33;;;;;;;37.13;20.60;;;;;;;;;;6258758;28;20390;-60
2023/06/15 15:33:34;;;;;;;42.27;21.83;;;;;;;;;;6256475;28;20033;-60
2023/06/15 15:36:35;;;;;;;38.07;20.20;;;;;;;;;;6258370;28;20061;-60
2023/06/15 15:39:36;;;;;;;;;;;;;;;;;;6260250;28;20115;-61
2023/06/15 15:42:36;;;;;;;33.30;19.60;;;;;;;;;;6258048;28;19940;-61
2023/06/15 15:45:37;;;;;;;33.27;19.47;;;;;;;;;;6258734;28;20056;-59
2023/06/15 15:48:38;;;;;;;35.93;19.23;;;;;;;;;;6259084;28;20061;-60
2023/06/15 15:51:38;;;;;;;31.27;16.87;;;;;;;;;;6258547;28;20056;-60
2023/06/15 15:54:39;;;;;;;31.03;16.10;;;;;;;;;;6255677;28;20057;-61
2023/06/15 15:57:44;;;;;;;28.23;16.20;;;;;;;;;;6258992;28;20068;-60
2023/06/15 16:00:45;;;;;;;26.80;14.95;;;;;;;;;;6257174;28;20057;-59
2023/06/15 16:03:46;;;;;;;26.13;13.13;;;;;;;;;;6256513;28;20492;-60
2023/06/15 16:06:46;;;;;;;20.03;12.87;;;;;;;;;;6258513;28;20436;-60
2023/06/15 16:09:49;;;;;;;19.87;12.60;;;;;;;;;;6258842;28;20424;-61
2023/06/15 16:12:49;;;;;;;23.73;12.95;;;;;;;;;;6254730;28;20107;-60
2023/06/15 16:15:50;;;;;;;17.97;11.80;;;;;;;;;;6257699;28;20049;-60
2023/06/15 16:18:50;;;;;;;22.37;11.37;;;;;;;;;;6258757;28;20462;-60
2023/06/15 16:21:51;;;;;;;21.13;10.87;;;;;;;;;;6258138;28;20073;-60
2023/06/15 16:24:52;;;;;;;21.40;11.23;;;;;;;;;;6255471;28;20037;-60
2023/06/15 16:27:52;;;;;;;17.17;11.03;;;;;;;;;;6258931;28;20064;-59
2023/06/15 16:30:53;;;;;;;19.37;11.53;;;;;;;;;;6259046;28;20433;-60
2023/06/15 16:33:54;;;;;;;15.57;10.80;;;;;;;;;;6252844;28;20049;-60
2023/06/15 16:36:55;;;;;;;21.47;12.00;;;;;;;;;;6257138;28;20960;-60
2023/06/15 16:39:58;;;;;;;16.02;10.93;;;;;;;;;;6257572;28;20048;-60
2023/06/15 16:42:58;;;;;;;16.67;10.40;;;;;;;;;;6254788;28;20068;-60
2023/06/15 16:45:59;;;;;;;18.47;10.77;;;;;;;;;;6256910;28;20148;-60
2023/06/15 16:48:59;;;;;;;19.40;10.87;;;;;;;;;;6257130;28;20064;-60
2023/06/15 16:52:00;;;;;;;16.73;10.10;;;;;;;;;;6257056;28;20077;-60
2023/06/15 16:55:00;;;;;;;17.70;10.80;;;;;;;;;;6254083;28;20048;-59
2023/06/15 16:58:03;;;;;;;15.70;10.83;;;;;;;;;;6258003;28;21025;-59
2023/06/15 17:01:03;;;;;;;18.60;10.85;;;;;;;;;;6257973;28;20197;-58
2023/06/15 17:04:04;;;;;;;21.67;11.30;;;;;;;;;;6255132;28;20033;-58
2023/06/15 17:07:05;;;;;;;18.40;11.67;;;;;;;;;;6257849;28;20412;-57
2023/06/15 17:10:07;;;;;;;18.27;11.40;;;;;;;;;;6254973;28;20052;-60
2023/06/15 17:13:08;;;;;;;17.45;11.20;;;;;;;;;;6254299;28;20045;-56
2023/06/15 17:16:08;;;;;;;18.77;12.10;;;;;;;;;;6253863;28;20079;-60
2023/06/15 17:19:10;;;;;;;16.20;11.17;;;;;;;;;;6256442;28;20451;-60
2023/06/15 17:22:11;;;;;;;17.17;10.98;;;;;;;;;;6254840;28;20105;-59
2023/06/15 17:25:11;;;;;;;16.87;11.17;;;;;;;;;;6254099;28;20438;-59
2023/06/15 17:28:15;;;;;;;19.87;11.47;;;;;;;;;;6253753;28;20144;-58
2023/06/15 17:31:15;;;;;;;17.08;11.45;;;;;;;;;;6254779;28;20171;-59
2023/06/15 17:34:16;;;;;;;19.30;11.20;;;;;;;;;;6253907;28;20102;-58
2023/06/15 17:37:17;;;;;;;17.67;11.27;;;;;;;;;;6254958;28;20389;-59
2023/06/15 17:40:18;;;;;;;21.40;12.02;;;;;;;;;;6256875;28;20419;-55